createdAt,value
2018-08-04T00:00:23.734Z,18.73
2018-08-04T00:02:52.884Z,18.73
2018-08-04T00:05:22.085Z,18.71
2018-08-04T00:07:51.302Z,18.68
2018-08-04T00:10:21.607Z,18.69
2018-08-04T00:12:51.907Z,18.71
2018-08-04T00:15:21.333Z,18.68
2018-08-04T00:17:50.683Z,18.69
2018-08-04T00:20:19.842Z,18.71
2018-08-04T00:22:49.022Z,18.65
2018-08-04T00:25:18.363Z,18.69
2018-08-04T00:27:47.626Z,18.76
2018-08-04T00:30:16.838Z,18.68
2018-08-04T00:32:46.028Z,18.64
2018-08-04T00:35:15.237Z,18.67
2018-08-04T00:37:44.431Z,18.59
2018-08-04T00:40:14.055Z,18.59
2018-08-04T00:42:43.300Z,18.57
2018-08-04T00:45:12.420Z,18.55
2018-08-04T00:47:41.518Z,18.60
2018-08-04T00:50:11.089Z,18.50
2018-08-04T00:52:40.226Z,18.44
2018-08-04T00:55:09.539Z,18.57
2018-08-04T00:57:38.616Z,18.60
2018-08-04T01:00:07.873Z,18.73
2018-08-04T01:02:37.018Z,18.72
2018-08-04T01:05:06.077Z,18.67
2018-08-04T01:07:35.105Z,18.67
2018-08-04T01:10:05.559Z,18.63
2018-08-04T01:12:34.952Z,18.57
2018-08-04T01:15:04.121Z,18.57
2018-08-04T01:17:33.459Z,18.50
2018-08-04T01:20:04.497Z,18.46
2018-08-04T01:22:34.538Z,18.54
2018-08-04T01:25:03.725Z,18.47
2018-08-04T01:27:32.989Z,18.48
2018-08-04T01:30:02.281Z,18.46
2018-08-04T01:32:31.385Z,18.53
2018-08-04T01:35:00.621Z,18.68
2018-08-04T01:37:29.925Z,18.65
2018-08-04T01:39:58.989Z,18.66
2018-08-04T01:42:28.463Z,18.69
2018-08-04T01:44:57.481Z,18.80
2018-08-04T01:47:26.721Z,18.78
2018-08-04T01:49:55.994Z,18.69
2018-08-04T01:52:25.190Z,18.67
2018-08-04T01:54:54.565Z,18.63
2018-08-04T01:57:23.783Z,18.55
2018-08-04T01:59:52.990Z,18.49
2018-08-04T02:02:22.054Z,18.45
2018-08-04T02:04:51.185Z,18.41
2018-08-04T02:07:20.808Z,18.38
2018-08-04T02:09:50.149Z,18.31
2018-08-04T02:12:19.409Z,18.45
2018-08-04T02:14:48.498Z,18.39
2018-08-04T02:17:17.683Z,18.30
2018-08-04T02:19:46.874Z,18.31
2018-08-04T02:22:16.069Z,18.31
2018-08-04T02:24:45.301Z,18.24
2018-08-04T02:27:14.470Z,18.14
2018-08-04T02:29:43.664Z,18.19
2018-08-04T02:32:12.881Z,18.33
2018-08-04T02:34:42.078Z,18.33
2018-08-04T02:37:11.591Z,18.26
2018-08-04T02:39:40.738Z,18.37
2018-08-04T02:42:09.482Z,18.27
2018-08-04T02:44:38.260Z,18.24
2018-08-04T02:47:07.057Z,18.26
2018-08-04T02:49:35.885Z,18.24
2018-08-04T02:52:04.712Z,18.19
2018-08-04T02:54:33.665Z,18.16
2018-08-04T02:57:02.439Z,18.22
2018-08-04T02:59:31.165Z,18.18
2018-08-04T03:01:59.948Z,18.07
2018-08-04T03:04:28.708Z,18.03
2018-08-04T03:06:57.434Z,18.05
2018-08-04T03:09:26.166Z,18.02
2018-08-04T03:11:54.904Z,18.02
2018-08-04T03:14:23.721Z,18.06
2018-08-04T03:16:52.475Z,18.06
2018-08-04T03:19:21.327Z,18.17
2018-08-04T03:21:50.082Z,18.12
2018-08-04T03:24:18.953Z,18.14
2018-08-04T03:26:47.774Z,18.25
2018-08-04T03:29:16.631Z,18.33
2018-08-04T03:31:45.407Z,18.41
2018-08-04T03:34:14.301Z,18.51
2018-08-04T03:36:43.099Z,18.54
2018-08-04T03:39:12.564Z,18.61
2018-08-04T03:41:42.228Z,18.66
2018-08-04T03:44:10.963Z,18.86
2018-08-04T03:46:39.704Z,18.98
2018-08-04T03:49:08.454Z,19.13
2018-08-04T03:51:37.255Z,19.32
2018-08-04T03:54:05.973Z,19.60
2018-08-04T03:56:34.684Z,20.68
2018-08-04T03:59:03.401Z,21.94
2018-08-04T04:01:35.062Z,23.07
2018-08-04T04:04:05.497Z,23.82
2018-08-04T04:06:34.259Z,24.57
2018-08-04T04:09:03.104Z,25.04
2018-08-04T04:11:31.828Z,25.79
2018-08-04T04:14:00.567Z,26.72
2018-08-04T04:16:29.352Z,27.23
2018-08-04T04:18:58.116Z,27.83
2018-08-04T04:21:26.901Z,28.63
2018-08-04T04:23:55.678Z,29.58
2018-08-04T04:26:24.427Z,30.25
2018-08-04T04:28:53.186Z,31.10
2018-08-04T04:31:21.930Z,30.99
2018-08-04T04:33:50.668Z,31.97
2018-08-04T04:36:19.418Z,32.64
2018-08-04T04:38:48.154Z,33.31
2018-08-04T04:41:16.974Z,33.29
2018-08-04T04:43:45.759Z,33.69
2018-08-04T04:46:14.518Z,33.94
2018-08-04T04:48:43.578Z,34.65
2018-08-04T04:51:12.345Z,34.95
2018-08-04T04:53:41.054Z,35.37
2018-08-04T04:56:09.774Z,35.64
2018-08-04T04:58:38.479Z,36.21
2018-08-04T05:01:07.266Z,36.99
2018-08-04T05:03:35.993Z,36.48
2018-08-04T05:06:04.767Z,36.48
2018-08-04T05:08:33.527Z,35.13
2018-08-04T05:11:02.246Z,33.86
2018-08-04T05:13:31.022Z,34.17
2018-08-04T05:15:59.771Z,33.98
2018-08-04T05:18:28.505Z,34.73
2018-08-04T05:20:57.235Z,35.32
2018-08-04T05:23:25.963Z,34.15
2018-08-04T05:25:54.728Z,34.11
2018-08-04T05:28:23.467Z,32.86
2018-08-04T05:30:52.239Z,33.73
2018-08-04T05:33:21.159Z,33.49
2018-08-04T05:35:50.013Z,34.01
2018-08-04T05:38:18.835Z,35.23
2018-08-04T05:40:47.563Z,36.26
2018-08-04T05:43:16.340Z,36.44
2018-08-04T05:45:45.073Z,35.56
2018-08-04T05:48:13.798Z,36.39
2018-08-04T05:50:42.611Z,36.43
2018-08-04T05:53:11.335Z,36.42
2018-08-04T05:55:40.170Z,36.90
2018-08-04T05:58:09.018Z,37.24
2018-08-04T06:00:37.807Z,37.61
2018-08-04T06:03:07.467Z,38.00
2018-08-04T06:05:36.278Z,38.73
2018-08-04T06:08:05.361Z,39.09
2018-08-04T06:10:34.147Z,40.21
2018-08-04T06:13:02.938Z,39.71
2018-08-04T06:15:31.838Z,40.16
2018-08-04T06:18:00.605Z,40.24
2018-08-04T06:20:29.359Z,40.07
2018-08-04T06:22:58.112Z,39.59
2018-08-04T06:25:26.879Z,41.06
2018-08-04T06:27:55.784Z,40.67
2018-08-04T06:30:24.563Z,40.97
2018-08-04T06:32:53.447Z,39.61
2018-08-04T06:35:22.142Z,39.43
2018-08-04T06:37:51.070Z,36.94
2018-08-04T06:40:19.849Z,36.84
2018-08-04T06:42:48.538Z,37.91
2018-08-04T06:45:17.289Z,38.83
2018-08-04T06:47:46.058Z,36.76
2018-08-04T06:50:14.856Z,37.61
2018-08-04T06:52:43.629Z,38.01
2018-08-04T06:55:12.337Z,38.74
2018-08-04T06:57:41.105Z,38.03
2018-08-04T07:00:09.910Z,37.89
2018-08-04T07:02:38.642Z,37.79
2018-08-04T07:05:07.399Z,38.22
2018-08-04T07:07:36.134Z,38.45
2018-08-04T07:10:05.244Z,38.24
2018-08-04T07:12:34.067Z,38.91
2018-08-04T07:15:02.860Z,39.21
2018-08-04T07:17:31.585Z,39.26
2018-08-04T07:20:00.317Z,37.38
2018-08-04T07:22:29.033Z,37.92
2018-08-04T07:24:57.822Z,38.08
2018-08-04T07:27:31.937Z,37.79
2018-08-04T07:30:00.911Z,38.38
2018-08-04T07:32:29.626Z,38.63
2018-08-04T07:34:58.366Z,38.18
2018-08-04T07:37:27.064Z,39.47
2018-08-04T07:39:55.757Z,39.46
2018-08-04T07:42:24.482Z,38.72
2018-08-04T07:44:53.198Z,37.89
2018-08-04T07:47:21.961Z,37.60
2018-08-04T07:49:50.690Z,37.98
2018-08-04T07:52:19.435Z,38.72
2018-08-04T07:54:48.243Z,38.55
2018-08-04T07:57:16.953Z,39.21
2018-08-04T07:59:45.680Z,39.45
2018-08-04T08:02:14.393Z,38.89
2018-08-04T08:04:43.106Z,38.59
2018-08-04T08:07:11.837Z,39.62
2018-08-04T08:09:40.525Z,40.20
2018-08-04T08:12:09.200Z,38.88
2018-08-04T08:14:38.821Z,39.17
2018-08-04T08:17:07.578Z,38.48
2018-08-04T08:19:36.277Z,39.20
2018-08-04T08:22:04.993Z,39.28
2018-08-04T08:24:33.689Z,39.46
2018-08-04T08:27:02.407Z,38.73
2018-08-04T08:29:31.112Z,38.70
2018-08-04T08:31:59.820Z,39.15
2018-08-04T08:34:28.509Z,39.52
2018-08-04T08:36:57.212Z,39.58
2018-08-04T08:39:25.945Z,40.07
2018-08-04T08:41:54.802Z,40.01
2018-08-04T08:44:23.497Z,38.77
2018-08-04T08:46:52.226Z,39.03
2018-08-04T08:49:20.929Z,39.19
2018-08-04T08:51:49.625Z,39.61
2018-08-04T08:54:18.376Z,39.70
2018-08-04T08:56:47.086Z,39.17
2018-08-04T08:59:15.834Z,39.78
2018-08-04T09:01:44.573Z,39.37
2018-08-04T09:04:13.262Z,39.13
2018-08-04T09:06:41.949Z,39.03
2018-08-04T09:09:11.329Z,39.99
2018-08-04T09:11:40.057Z,38.52
2018-08-04T09:14:09.999Z,38.34
2018-08-04T09:16:38.965Z,37.63
2018-08-04T09:19:07.695Z,38.92
2018-08-04T09:21:36.396Z,38.84
2018-08-04T09:24:05.200Z,38.79
2018-08-04T09:26:33.894Z,38.07
2018-08-04T09:29:02.730Z,38.05
2018-08-04T09:31:31.424Z,38.08
2018-08-04T09:34:00.133Z,38.03
2018-08-04T09:36:29.030Z,38.52
2018-08-04T09:38:57.782Z,38.06
2018-08-04T09:41:26.530Z,38.36
2018-08-04T09:43:55.245Z,39.09
2018-08-04T09:46:24.138Z,40.30
2018-08-04T09:48:52.990Z,39.73
2018-08-04T09:51:21.694Z,39.81
2018-08-04T09:53:50.410Z,38.84
2018-08-04T09:56:19.190Z,38.77
2018-08-04T09:58:47.905Z,39.47
2018-08-04T10:01:21.816Z,38.85
2018-08-04T10:03:50.523Z,37.70
2018-08-04T10:06:19.285Z,39.61
2018-08-04T10:08:47.996Z,40.22
2018-08-04T10:11:16.816Z,40.91
2018-08-04T10:13:45.532Z,40.70
2018-08-04T10:16:14.217Z,41.43
2018-08-04T10:18:42.957Z,41.49
2018-08-04T10:21:11.794Z,41.20
2018-08-04T10:23:40.822Z,40.46
2018-08-04T10:26:09.589Z,38.95
2018-08-04T10:28:38.314Z,39.66
2018-08-04T10:31:07.170Z,40.69
2018-08-04T10:33:36.230Z,41.32
2018-08-04T10:36:04.914Z,41.54
2018-08-04T10:38:33.679Z,41.75
2018-08-04T10:41:02.389Z,41.08
2018-08-04T10:43:31.135Z,41.79
2018-08-04T10:45:59.853Z,39.71
2018-08-04T10:48:28.601Z,40.88
2018-08-04T10:50:57.377Z,41.55
2018-08-04T10:53:26.091Z,41.27
2018-08-04T10:55:54.818Z,40.90
2018-08-04T10:58:23.580Z,40.79
2018-08-04T11:00:52.307Z,40.48
2018-08-04T11:03:21.005Z,40.92
2018-08-04T11:05:49.777Z,40.04
2018-08-04T11:08:23.943Z,39.69
2018-08-04T11:10:52.687Z,40.48
2018-08-04T11:13:21.375Z,41.19
2018-08-04T11:15:50.089Z,39.87
2018-08-04T11:18:18.815Z,40.19
2018-08-04T11:20:47.527Z,40.92
2018-08-04T11:23:16.270Z,40.37
2018-08-04T11:25:44.997Z,40.70
2018-08-04T11:28:13.828Z,39.47
2018-08-04T11:30:42.533Z,39.19
2018-08-04T11:33:11.221Z,39.43
2018-08-04T11:35:39.925Z,39.58
2018-08-04T11:38:08.871Z,39.34
2018-08-04T11:40:37.599Z,39.90
2018-08-04T11:43:06.369Z,41.04
2018-08-04T11:45:35.068Z,41.41
2018-08-04T11:48:03.785Z,40.19
2018-08-04T11:50:32.476Z,40.78
2018-08-04T11:53:01.211Z,41.47
2018-08-04T11:55:29.959Z,39.39
2018-08-04T11:57:58.758Z,39.86
2018-08-04T12:00:27.468Z,40.10
2018-08-04T12:02:56.177Z,41.71
2018-08-04T12:05:24.923Z,42.20
2018-08-04T12:07:53.637Z,42.93
2018-08-04T12:10:22.383Z,42.29
2018-08-04T12:12:51.109Z,41.70
2018-08-04T12:15:19.847Z,40.08
2018-08-04T12:17:48.544Z,37.55
2018-08-04T12:20:17.346Z,38.24
2018-08-04T12:22:46.071Z,38.30
2018-08-04T12:25:16.158Z,38.27
2018-08-04T12:27:47.465Z,37.58
2018-08-04T12:30:18.238Z,37.21
2018-08-04T12:32:50.000Z,37.46
2018-08-04T12:35:18.917Z,36.39
2018-08-04T12:37:47.897Z,36.81
2018-08-04T12:40:16.866Z,36.86
2018-08-04T12:42:45.590Z,37.84
2018-08-04T12:45:14.352Z,38.21
2018-08-04T12:47:43.091Z,39.01
2018-08-04T12:50:11.856Z,39.48
2018-08-04T12:52:40.602Z,39.63
2018-08-04T12:55:09.322Z,39.31
2018-08-04T12:57:38.072Z,38.44
2018-08-04T13:00:07.525Z,37.93
2018-08-04T13:02:36.311Z,36.45
2018-08-04T13:05:05.898Z,36.26
2018-08-04T13:07:34.634Z,36.05
2018-08-04T13:10:03.454Z,36.23
2018-08-04T13:12:32.189Z,35.23
2018-08-04T13:15:00.925Z,34.31
2018-08-04T13:17:29.648Z,33.38
2018-08-04T13:19:58.374Z,33.00
2018-08-04T13:22:27.128Z,33.40
2018-08-04T13:24:56.257Z,33.52
2018-08-04T13:27:25.189Z,33.83
2018-08-04T13:29:53.904Z,33.55
2018-08-04T13:32:22.605Z,33.47
2018-08-04T13:34:51.368Z,33.57
2018-08-04T13:37:20.134Z,33.45
2018-08-04T13:39:48.825Z,33.65
2018-08-04T13:42:17.530Z,33.52
2018-08-04T13:44:46.239Z,33.12
2018-08-04T13:47:14.945Z,33.30
2018-08-04T13:49:43.657Z,33.27
2018-08-04T13:52:12.385Z,33.04
2018-08-04T13:54:41.095Z,32.69
2018-08-04T13:57:09.969Z,32.45
2018-08-04T13:59:38.794Z,32.34
2018-08-04T14:02:07.612Z,32.32
2018-08-04T14:04:36.389Z,32.53
2018-08-04T14:07:05.141Z,32.57
2018-08-04T14:09:33.922Z,32.62
2018-08-04T14:12:02.689Z,32.49
2018-08-04T14:14:31.414Z,32.30
2018-08-04T14:17:00.123Z,31.94
2018-08-04T14:19:28.882Z,31.95
2018-08-04T14:21:57.592Z,31.93
2018-08-04T14:24:26.337Z,32.02
2018-08-04T14:26:55.072Z,32.21
2018-08-04T14:29:23.798Z,32.27
2018-08-04T14:31:52.638Z,32.15
2018-08-04T14:34:21.366Z,32.23
2018-08-04T14:36:50.099Z,32.17
2018-08-04T14:39:18.918Z,32.38
2018-08-04T14:41:47.747Z,32.58
2018-08-04T14:44:16.453Z,32.71
2018-08-04T14:46:45.160Z,32.48
2018-08-04T14:49:14.005Z,32.37
2018-08-04T14:51:42.722Z,32.23
2018-08-04T14:54:11.457Z,32.26
2018-08-04T14:56:40.150Z,32.44
2018-08-04T14:59:08.993Z,32.52
2018-08-04T15:01:37.781Z,32.59
2018-08-04T15:04:06.750Z,32.63
2018-08-04T15:06:35.486Z,32.34
2018-08-04T15:09:05.862Z,32.08
2018-08-04T15:11:34.705Z,32.04
2018-08-04T15:14:03.433Z,31.93
2018-08-04T15:16:32.210Z,31.83
2018-08-04T15:19:01.086Z,31.74
2018-08-04T15:21:29.819Z,31.77
2018-08-04T15:23:58.543Z,31.73
2018-08-04T15:26:27.273Z,31.72
2018-08-04T15:28:55.983Z,31.66
2018-08-04T15:31:25.207Z,31.55
2018-08-04T15:33:55.030Z,31.43
2018-08-04T15:36:25.180Z,31.14
2018-08-04T15:38:53.982Z,30.79
2018-08-04T15:41:22.694Z,30.44
2018-08-04T15:43:51.390Z,30.07
2018-08-04T15:46:21.195Z,29.81
2018-08-04T15:48:49.916Z,29.62
2018-08-04T15:51:18.817Z,29.44
2018-08-04T15:53:47.537Z,29.29
2018-08-04T15:56:16.245Z,29.15
2018-08-04T15:58:45.008Z,28.93
2018-08-04T16:01:13.742Z,28.76
2018-08-04T16:03:42.530Z,28.67
2018-08-04T16:06:11.357Z,28.49
2018-08-04T16:08:40.082Z,28.40
2018-08-04T16:11:08.824Z,28.30
2018-08-04T16:13:37.641Z,28.18
2018-08-04T16:16:06.416Z,28.07
2018-08-04T16:18:35.150Z,27.93
2018-08-04T16:21:03.868Z,27.83
2018-08-04T16:23:32.589Z,27.60
2018-08-04T16:26:01.321Z,27.44
2018-08-04T16:28:30.079Z,27.25
2018-08-04T16:30:58.829Z,27.11
2018-08-04T16:33:27.609Z,27.06
2018-08-04T16:35:56.374Z,26.96
2018-08-04T16:38:25.075Z,26.77
2018-08-04T16:40:53.813Z,26.63
2018-08-04T16:43:22.711Z,26.40
2018-08-04T16:45:51.422Z,26.25
2018-08-04T16:48:20.122Z,26.12
2018-08-04T16:50:48.866Z,25.96
2018-08-04T16:53:17.609Z,25.85
2018-08-04T16:55:46.340Z,25.75
2018-08-04T16:58:15.068Z,25.59
2018-08-04T17:00:43.793Z,25.45
2018-08-04T17:03:12.606Z,25.31
2018-08-04T17:05:41.380Z,25.14
2018-08-04T17:08:10.138Z,24.98
2018-08-04T17:10:38.869Z,24.89
2018-08-04T17:13:07.578Z,24.83
2018-08-04T17:15:36.306Z,24.78
2018-08-04T17:18:05.354Z,24.67
2018-08-04T17:20:34.076Z,24.62
2018-08-04T17:23:02.815Z,24.54
2018-08-04T17:25:31.575Z,24.47
2018-08-04T17:28:00.498Z,24.35
2018-08-04T17:30:29.289Z,24.31
2018-08-04T17:32:57.985Z,24.23
2018-08-04T17:35:26.943Z,24.21
2018-08-04T17:37:55.953Z,24.14
2018-08-04T17:40:24.950Z,24.13
2018-08-04T17:42:53.808Z,24.04
2018-08-04T17:45:22.545Z,23.91
2018-08-04T17:47:51.273Z,23.87
2018-08-04T17:50:20.133Z,23.79
2018-08-04T17:52:48.957Z,23.74
2018-08-04T17:55:17.723Z,23.68
2018-08-04T17:57:46.445Z,23.67
2018-08-04T18:00:15.173Z,23.62
2018-08-04T18:02:44.002Z,23.53
2018-08-04T18:05:12.762Z,23.39
2018-08-04T18:07:41.582Z,23.35
2018-08-04T18:10:10.289Z,23.28
2018-08-04T18:12:39.116Z,23.26
2018-08-04T18:15:08.233Z,23.18
2018-08-04T18:17:36.946Z,23.07
2018-08-04T18:20:05.724Z,23.02
2018-08-04T18:22:34.445Z,22.95
2018-08-04T18:25:03.188Z,22.75
2018-08-04T18:27:31.990Z,22.74
2018-08-04T18:30:00.764Z,22.72
2018-08-04T18:32:29.478Z,22.68
2018-08-04T18:34:58.193Z,22.62
2018-08-04T18:37:26.985Z,22.58
2018-08-04T18:39:55.752Z,22.54
2018-08-04T18:42:24.472Z,22.49
2018-08-04T18:44:53.258Z,22.42
2018-08-04T18:47:21.984Z,22.34
2018-08-04T18:49:50.757Z,22.41
2018-08-04T18:52:19.496Z,22.37
2018-08-04T18:54:48.275Z,22.27
2018-08-04T18:57:17.008Z,22.25
2018-08-04T18:59:45.816Z,22.17
2018-08-04T19:02:14.593Z,22.10
2018-08-04T19:04:44.781Z,22.03
2018-08-04T19:07:13.552Z,21.94
2018-08-04T19:09:42.353Z,21.83
2018-08-04T19:12:11.133Z,21.77
2018-08-04T19:14:39.891Z,21.72
2018-08-04T19:17:08.648Z,21.67
2018-08-04T19:19:37.470Z,21.62
2018-08-04T19:22:06.262Z,21.49
2018-08-04T19:24:35.144Z,21.38
2018-08-04T19:27:03.938Z,21.39
2018-08-04T19:29:32.757Z,21.36
2018-08-04T19:32:01.561Z,21.30
2018-08-04T19:34:30.445Z,21.28
2018-08-04T19:36:59.213Z,21.24
2018-08-04T19:39:27.950Z,21.23
2018-08-04T19:41:56.705Z,21.26
2018-08-04T19:44:25.519Z,21.15
2018-08-04T19:46:54.346Z,21.07
2018-08-04T19:49:23.103Z,20.99
2018-08-04T19:51:51.834Z,20.91
2018-08-04T19:54:20.573Z,20.84
2018-08-04T19:56:49.314Z,20.77
2018-08-04T19:59:18.066Z,20.73
2018-08-04T20:01:46.801Z,20.80
2018-08-04T20:04:15.543Z,20.72
2018-08-04T20:06:44.390Z,20.64
2018-08-04T20:09:13.125Z,20.63
2018-08-04T20:11:41.852Z,20.59
2018-08-04T20:14:10.573Z,20.58
2018-08-04T20:16:39.326Z,20.56
2018-08-04T20:19:08.077Z,20.62
2018-08-04T20:21:36.812Z,20.60
2018-08-04T20:24:05.603Z,20.51
2018-08-04T20:26:34.337Z,20.46
2018-08-04T20:29:03.064Z,20.44
2018-08-04T20:31:31.827Z,20.37
2018-08-04T20:34:00.686Z,20.34
2018-08-04T20:36:29.452Z,20.30
2018-08-04T20:38:58.166Z,20.33
2018-08-04T20:41:26.936Z,20.41
2018-08-04T20:43:55.677Z,20.45
2018-08-04T20:46:24.485Z,20.38
2018-08-04T20:48:53.476Z,20.31
2018-08-04T20:51:22.194Z,20.27
2018-08-04T20:53:50.914Z,20.24
2018-08-04T20:56:19.629Z,20.14
2018-08-04T20:58:48.323Z,20.14
2018-08-04T21:01:28.063Z,20.09
2018-08-04T21:03:56.831Z,20.14
2018-08-04T21:06:25.581Z,20.07
2018-08-04T21:08:54.484Z,20.04
2018-08-04T21:11:23.200Z,19.99
2018-08-04T21:13:51.955Z,19.95
2018-08-04T21:16:20.739Z,19.96
2018-08-04T21:18:49.474Z,19.95
2018-08-04T21:21:18.311Z,19.91
2018-08-04T21:23:47.113Z,19.95
2018-08-04T21:26:15.861Z,19.93
2018-08-04T21:28:44.575Z,19.92
2018-08-04T21:31:13.299Z,19.82
2018-08-04T21:33:42.022Z,19.80
2018-08-04T21:36:10.723Z,19.78
2018-08-04T21:38:39.488Z,19.79
2018-08-04T21:41:08.197Z,19.82
2018-08-04T21:43:36.977Z,19.74
2018-08-04T21:46:05.716Z,19.78
2018-08-04T21:48:34.555Z,19.74
2018-08-04T21:51:03.263Z,19.66
2018-08-04T21:53:32.006Z,19.57
2018-08-04T21:56:00.874Z,19.61
2018-08-04T21:58:29.574Z,19.53
2018-08-04T22:01:03.334Z,19.53
2018-08-04T22:03:32.061Z,19.47
2018-08-04T22:06:00.809Z,19.39
2018-08-04T22:08:40.686Z,19.37
2018-08-04T22:11:09.377Z,19.35
2018-08-04T22:13:38.070Z,19.32
2018-08-04T22:16:06.984Z,19.32
2018-08-04T22:18:35.686Z,19.32
2018-08-04T22:21:04.385Z,19.34
2018-08-04T22:23:33.101Z,19.36
2018-08-04T22:26:01.869Z,19.37
2018-08-04T22:28:30.642Z,19.33
2018-08-04T22:30:59.421Z,19.30
2018-08-04T22:33:28.156Z,19.33
2018-08-04T22:35:56.849Z,19.40
2018-08-04T22:38:25.558Z,19.43
2018-08-04T22:40:54.338Z,19.45
2018-08-04T22:43:23.058Z,19.37
2018-08-04T22:46:10.773Z,19.30
2018-08-04T22:48:39.591Z,19.30
2018-08-04T22:51:08.354Z,19.27
2018-08-04T22:53:37.265Z,19.24
2018-08-04T22:56:06.073Z,19.24
2018-08-04T22:58:34.800Z,19.16
2018-08-04T23:01:03.541Z,19.15
2018-08-04T23:03:32.308Z,19.15
2018-08-04T23:06:01.090Z,19.04
2018-08-04T23:08:29.792Z,19.00
2018-08-04T23:10:58.510Z,19.01
2018-08-04T23:13:27.375Z,19.02
2018-08-04T23:15:56.141Z,19.03
2018-08-04T23:18:24.926Z,19.01
2018-08-04T23:20:53.696Z,18.93
2018-08-04T23:23:22.417Z,19.00
2018-08-04T23:25:51.171Z,19.07
2018-08-04T23:28:19.953Z,19.07
2018-08-04T23:30:48.696Z,19.13
2018-08-04T23:33:17.418Z,19.14
2018-08-04T23:35:46.139Z,19.13
2018-08-04T23:38:15.066Z,19.17
2018-08-04T23:40:43.810Z,19.19
2018-08-04T23:43:12.650Z,19.18
2018-08-04T23:45:41.393Z,18.99
2018-08-04T23:48:10.131Z,18.88
2018-08-04T23:50:38.849Z,18.87
2018-08-04T23:53:07.592Z,18.81
2018-08-04T23:55:42.705Z,18.85
2018-08-04T23:58:11.502Z,18.82
